createdAt,value
2022-11-04T00:00:14.624Z,59.6
2022-11-04T00:01:58.045Z,59.6
2022-11-04T00:07:07.272Z,59.6
2022-11-04T00:08:50.657Z,59.6
2022-11-04T00:10:34.066Z,59.6
2022-11-04T00:12:17.457Z,59.6
2022-11-04T00:14:00.843Z,59.6
2022-11-04T00:15:44.227Z,59.6
2022-11-04T00:17:27.672Z,59.6
2022-11-04T00:19:11.031Z,59.6
2022-11-04T00:20:54.425Z,59.6
2022-11-04T00:24:20.899Z,59.6
2022-11-04T00:26:04.283Z,59.6
2022-11-04T00:27:47.701Z,59.6
2022-11-04T00:29:31.106Z,59.6
2022-11-04T00:31:14.501Z,59.6
2022-11-04T00:32:57.869Z,59.6
2022-11-04T00:34:41.270Z,59.6
2022-11-04T00:36:24.677Z,59.6
2022-11-04T00:38:08.084Z,59.6
2022-11-04T00:45:00.074Z,59.6
2022-11-04T00:46:43.472Z,59.6
2022-11-04T00:48:26.869Z,59.6
2022-11-04T00:50:10.276Z,59.6
2022-11-04T00:51:53.677Z,59.6
2022-11-04T00:53:37.069Z,59.6
2022-11-04T00:55:20.459Z,59.6
2022-11-04T00:57:03.849Z,59.6
2022-11-04T00:58:47.252Z,59.6
2022-11-04T01:02:13.731Z,59.6
2022-11-04T01:03:57.133Z,59.6
2022-11-04T01:05:40.508Z,59.6
2022-11-04T01:07:23.912Z,59.6
2022-11-04T01:09:07.305Z,59.6
2022-11-04T01:10:50.713Z,59.6
2022-11-04T01:12:34.096Z,59.6
2022-11-04T01:14:17.525Z,59.6
2022-11-04T01:16:00.903Z,59.6
2022-11-04T01:17:44.600Z,59.6
2022-11-04T01:19:28.016Z,59.6
2022-11-04T01:21:11.401Z,59.6
2022-11-04T01:22:54.807Z,59.6
2022-11-04T01:24:38.217Z,59.6
2022-11-04T01:26:21.577Z,59.6
2022-11-04T01:28:04.992Z,59.6
2022-11-04T01:29:48.380Z,59.6
2022-11-04T01:31:31.777Z,59.6
2022-11-04T01:34:58.280Z,59.5
2022-11-04T01:36:41.642Z,59.5
2022-11-04T01:38:25.072Z,59.5
2022-11-04T01:40:08.436Z,59.5
2022-11-04T01:41:51.848Z,59.6
2022-11-04T01:43:35.212Z,59.6
2022-11-04T01:45:18.635Z,59.6
2022-11-04T01:47:02.005Z,59.5
2022-11-04T01:48:45.419Z,59.6
2022-11-04T01:52:11.885Z,59.5
2022-11-04T01:53:55.304Z,59.5
2022-11-04T01:55:38.674Z,59.5
2022-11-04T01:57:22.080Z,59.6
2022-11-04T01:59:05.473Z,59.5
2022-11-04T02:00:48.913Z,59.5
2022-11-04T02:02:32.262Z,59.5
2022-11-04T02:04:15.668Z,59.5
2022-11-04T02:05:59.094Z,59.5
2022-11-04T02:11:08.319Z,59.6
2022-11-04T02:12:51.704Z,59.6
2022-11-04T02:14:35.096Z,59.5
2022-11-04T02:16:18.471Z,59.5
2022-11-04T02:18:01.889Z,59.6
2022-11-04T02:19:45.267Z,59.5
2022-11-04T02:21:28.659Z,59.5
2022-11-04T02:23:12.074Z,59.5
2022-11-04T02:24:55.455Z,59.5
2022-11-04T02:28:21.931Z,59.6
2022-11-04T02:30:05.332Z,59.6
2022-11-04T02:31:48.732Z,59.6
2022-11-04T02:33:32.129Z,59.5
2022-11-04T02:35:15.538Z,59.6
2022-11-04T02:36:58.952Z,59.6
2022-11-04T02:38:42.331Z,59.6
2022-11-04T02:40:25.704Z,59.5
2022-11-04T02:42:09.111Z,59.6
2022-11-04T02:47:18.349Z,59.6
2022-11-04T02:49:01.743Z,59.5
2022-11-04T02:50:45.133Z,59.6
2022-11-04T02:52:28.540Z,59.6
2022-11-04T02:54:11.953Z,59.6
2022-11-04T02:55:55.333Z,59.5
2022-11-04T02:57:38.720Z,59.5
2022-11-04T02:59:22.143Z,59.5
2022-11-04T03:01:05.514Z,59.6
2022-11-04T03:04:31.986Z,59.6
2022-11-04T03:06:15.387Z,59.6
2022-11-04T03:07:58.773Z,59.6
2022-11-04T03:09:42.182Z,59.5
2022-11-04T03:11:25.561Z,59.5
2022-11-04T03:13:08.967Z,59.5
2022-11-04T03:14:52.362Z,59.6
2022-11-04T03:16:35.754Z,59.6
2022-11-04T03:18:19.156Z,59.6
2022-11-04T03:23:28.395Z,59.6
2022-11-04T03:25:11.801Z,59.6
2022-11-04T03:26:55.195Z,59.6
2022-11-04T03:28:38.591Z,59.6
2022-11-04T03:30:21.975Z,59.6
2022-11-04T03:32:05.386Z,59.6
2022-11-04T03:33:48.782Z,59.6
2022-11-04T03:35:32.208Z,59.6
2022-11-04T03:37:15.557Z,59.6
2022-11-04T03:42:24.822Z,59.6
2022-11-04T03:44:08.211Z,59.6
2022-11-04T03:45:51.605Z,59.6
2022-11-04T03:47:34.991Z,59.6
2022-11-04T03:49:18.436Z,59.5
2022-11-04T03:51:01.876Z,59.5
2022-11-04T03:52:45.176Z,59.6
2022-11-04T03:54:28.602Z,59.5
2022-11-04T03:56:11.978Z,59.5
2022-11-04T03:59:38.457Z,59.5
2022-11-04T04:01:21.870Z,59.5
2022-11-04T04:03:05.248Z,59.5
2022-11-04T04:04:48.657Z,59.5
2022-11-04T04:06:32.032Z,59.5
2022-11-04T04:08:15.435Z,59.5
2022-11-04T04:09:58.841Z,59.5
2022-11-04T04:11:42.275Z,59.5
2022-11-04T04:13:25.614Z,59.5
2022-11-04T04:18:34.857Z,59.5
2022-11-04T04:20:18.259Z,59.5
2022-11-04T04:22:01.727Z,59.5
2022-11-04T04:23:45.061Z,59.5
2022-11-04T04:25:28.453Z,59.5
2022-11-04T04:27:11.858Z,59.5
2022-11-04T04:28:55.275Z,59.5
2022-11-04T04:30:38.634Z,59.5
2022-11-04T04:32:22.025Z,59.5
2022-11-04T04:37:31.373Z,59.5
2022-11-04T04:39:14.664Z,59.5
2022-11-04T04:40:58.073Z,59.5
2022-11-04T04:42:41.480Z,59.5
2022-11-04T04:44:24.859Z,59.5
2022-11-04T04:46:08.285Z,59.5
2022-11-04T04:47:51.685Z,59.5
2022-11-04T04:49:35.060Z,59.5
2022-11-04T04:51:18.436Z,59.5
2022-11-04T04:54:44.920Z,59.5
2022-11-04T04:56:28.319Z,59.5
2022-11-04T04:58:11.714Z,59.5
2022-11-04T04:59:55.093Z,59.5
2022-11-04T05:01:38.542Z,59.5
2022-11-04T05:03:21.909Z,59.5
2022-11-04T05:05:05.294Z,59.5
2022-11-04T05:06:48.696Z,59.5
2022-11-04T05:08:32.090Z,59.5
2022-11-04T05:13:41.340Z,59.5
2022-11-04T05:15:24.730Z,59.5
2022-11-04T05:17:08.127Z,59.5
2022-11-04T05:18:51.531Z,59.5
2022-11-04T05:20:34.922Z,59.5
2022-11-04T05:22:18.364Z,59.5
2022-11-04T05:24:01.702Z,59.5
2022-11-04T05:25:45.099Z,59.5
2022-11-04T05:27:28.518Z,59.5
2022-11-04T05:30:54.986Z,59.5
2022-11-04T05:32:38.400Z,59.5
2022-11-04T05:34:21.768Z,59.5
2022-11-04T05:36:05.174Z,59.5
2022-11-04T05:37:48.552Z,59.5
2022-11-04T05:39:31.964Z,59.5
2022-11-04T05:41:15.381Z,59.5
2022-11-04T05:42:58.776Z,59.5
2022-11-04T05:44:42.165Z,59.5
2022-11-04T05:49:51.392Z,59.5
2022-11-04T05:51:34.791Z,59.5
2022-11-04T05:53:18.205Z,59.5
2022-11-04T05:55:01.583Z,59.5
2022-11-04T05:56:44.965Z,59.5
2022-11-04T05:58:28.366Z,59.5
2022-11-04T06:00:11.764Z,59.5
2022-11-04T06:01:55.191Z,59.5
2022-11-04T06:03:38.577Z,59.5
2022-11-04T06:07:05.099Z,59.5
2022-11-04T06:08:48.418Z,59.5
2022-11-04T06:10:31.829Z,59.5
2022-11-04T06:12:15.237Z,59.5
2022-11-04T06:13:58.657Z,59.5
2022-11-04T06:15:42.011Z,59.5
2022-11-04T06:17:25.426Z,59.5
2022-11-04T06:19:08.795Z,59.5
2022-11-04T06:20:52.222Z,59.5
2022-11-04T06:24:18.670Z,59.5
2022-11-04T06:26:02.107Z,59.5
2022-11-04T06:27:45.507Z,59.5
2022-11-04T06:29:28.866Z,59.5
2022-11-04T06:31:12.352Z,59.5
2022-11-04T06:32:55.649Z,59.5
2022-11-04T06:34:39.065Z,59.5
2022-11-04T06:36:22.500Z,59.5
2022-11-04T06:41:31.723Z,59.5
2022-11-04T06:43:15.101Z,59.5
2022-11-04T06:44:58.553Z,59.5
2022-11-04T06:46:41.875Z,59.5
2022-11-04T06:48:25.284Z,59.5
2022-11-04T06:50:08.733Z,59.5
2022-11-04T06:51:52.062Z,59.5
2022-11-04T06:53:35.443Z,59.5
2022-11-04T06:55:18.868Z,59.5
2022-11-04T06:57:02.619Z,59.5
2022-11-04T06:58:45.949Z,59.5
2022-11-04T07:00:29.341Z,59.5
2022-11-04T07:02:12.774Z,59.5
2022-11-04T07:03:56.141Z,59.5
2022-11-04T07:05:39.531Z,59.5
2022-11-04T07:07:22.934Z,59.5
2022-11-04T07:09:06.340Z,59.4
2022-11-04T07:14:15.579Z,59.4
2022-11-04T07:15:58.964Z,59.5
2022-11-04T07:17:42.358Z,59.5
2022-11-04T07:19:25.784Z,59.4
2022-11-04T07:21:09.155Z,59.4
2022-11-04T07:22:52.566Z,59.4
2022-11-04T07:24:35.947Z,59.4
2022-11-04T07:26:19.349Z,59.5
2022-11-04T07:31:28.582Z,59.6
2022-11-04T07:33:11.990Z,59.5
2022-11-04T07:34:55.375Z,59.5
2022-11-04T07:36:38.762Z,59.4
2022-11-04T07:38:22.165Z,59.4
2022-11-04T07:40:05.597Z,59.4
2022-11-04T07:41:48.947Z,59.5
2022-11-04T07:43:32.350Z,59.5
2022-11-04T07:45:15.753Z,59.5
2022-11-04T07:50:25.039Z,59.4
2022-11-04T07:52:08.393Z,59.3
2022-11-04T07:53:51.803Z,59.3
2022-11-04T07:55:35.180Z,59.3
2022-11-04T07:57:18.585Z,59.4
2022-11-04T07:59:01.964Z,59.5
2022-11-04T08:00:45.372Z,59.5
2022-11-04T08:02:28.818Z,59.5
2022-11-04T08:04:12.329Z,59.4
2022-11-04T08:05:55.854Z,59.6
2022-11-04T08:07:39.352Z,59.8
2022-11-04T08:09:22.756Z,59.7
2022-11-04T08:11:06.068Z,59.6
2022-11-04T08:12:49.455Z,59.7
2022-11-04T08:14:32.849Z,59.6
2022-11-04T08:16:16.276Z,59.7
2022-11-04T08:17:59.687Z,59.9
2022-11-04T08:23:08.930Z,60.1
2022-11-04T08:24:52.332Z,60.1
2022-11-04T08:26:35.745Z,60
2022-11-04T08:28:19.100Z,59.7
2022-11-04T08:30:02.487Z,59.7
2022-11-04T08:31:45.909Z,59.8
2022-11-04T08:33:29.351Z,60
2022-11-04T08:35:12.670Z,60
2022-11-04T08:38:39.129Z,59.7
2022-11-04T08:40:22.615Z,59.7
2022-11-04T08:42:05.921Z,59.6
2022-11-04T08:43:49.315Z,59.7
2022-11-04T08:45:32.706Z,59.7
2022-11-04T08:47:16.148Z,59.7
2022-11-04T08:48:59.513Z,59.7
2022-11-04T08:50:42.920Z,59.8
2022-11-04T08:54:09.389Z,59.7
2022-11-04T08:55:52.839Z,59.6
2022-11-04T08:57:36.172Z,59.7
2022-11-04T08:59:19.569Z,59.5
2022-11-04T09:01:02.960Z,59.6
2022-11-04T09:02:46.402Z,59.6
2022-11-04T09:04:29.764Z,59.3
2022-11-04T09:06:13.175Z,59.4
2022-11-04T09:07:56.552Z,59.2
2022-11-04T09:11:23.036Z,59.2
2022-11-04T09:13:06.409Z,59.2
2022-11-04T09:14:49.815Z,59.2
2022-11-04T09:16:33.286Z,59.2
2022-11-04T09:18:16.607Z,59.2
2022-11-04T09:19:59.995Z,59.2
2022-11-04T09:21:43.404Z,59.2
2022-11-04T09:23:26.785Z,59.2
2022-11-04T09:26:53.262Z,59.2
2022-11-04T09:28:36.654Z,59.2
2022-11-04T09:30:20.060Z,59.2
2022-11-04T09:32:03.459Z,59.3
2022-11-04T09:33:46.880Z,59.3
2022-11-04T09:35:30.243Z,59.3
2022-11-04T09:37:13.634Z,59.3
2022-11-04T09:38:57.067Z,59.3
2022-11-04T09:40:40.426Z,59.4
2022-11-04T09:44:06.990Z,59.3
2022-11-04T09:45:50.301Z,59.4
2022-11-04T09:47:33.699Z,59.4
2022-11-04T09:49:17.098Z,59.4
2022-11-04T09:51:00.496Z,59.3
2022-11-04T09:52:43.903Z,59.3
2022-11-04T09:54:27.317Z,59.3
2022-11-04T09:56:10.693Z,59.3
2022-11-04T10:01:19.912Z,59.3
2022-11-04T10:03:03.324Z,59.3
2022-11-04T10:04:46.731Z,59.3
2022-11-04T10:06:30.130Z,59.3
2022-11-04T10:08:13.542Z,59.3
2022-11-04T10:09:56.907Z,59.3
2022-11-04T10:11:40.293Z,59.3
2022-11-04T10:13:23.691Z,59.3
2022-11-04T10:18:32.951Z,59.2
2022-11-04T10:20:16.334Z,59.2
2022-11-04T10:21:59.741Z,59.2
2022-11-04T10:23:43.135Z,59.2
2022-11-04T10:25:26.527Z,59.2
2022-11-04T10:27:09.993Z,59.1
2022-11-04T10:28:53.318Z,58.9
2022-11-04T10:30:36.732Z,58.8
2022-11-04T10:35:45.956Z,59.1
2022-11-04T10:37:29.595Z,59.2
2022-11-04T10:39:12.753Z,59.1
2022-11-04T10:40:56.146Z,59.1
2022-11-04T10:42:39.590Z,58.9
2022-11-04T10:44:22.933Z,58.9
2022-11-04T10:46:06.326Z,59
2022-11-04T10:47:49.770Z,59
2022-11-04T10:49:33.121Z,59.2
2022-11-04T10:52:59.609Z,60
2022-11-04T10:54:43.017Z,59.9
2022-11-04T10:56:26.512Z,60.4
2022-11-04T10:58:09.861Z,60.6
2022-11-04T10:59:53.168Z,60.5
2022-11-04T11:01:36.635Z,60.6
2022-11-04T11:03:19.988Z,60.1
2022-11-04T11:05:03.406Z,60.6
2022-11-04T11:06:46.811Z,60.4
2022-11-04T11:08:30.478Z,60.7
2022-11-04T11:10:13.923Z,60.8
2022-11-04T11:11:57.364Z,60.7
2022-11-04T11:13:40.689Z,60.5
2022-11-04T11:15:24.069Z,60.3
2022-11-04T11:17:07.458Z,60.2
2022-11-04T11:18:50.856Z,60.5
2022-11-04T11:20:34.251Z,60.5
2022-11-04T11:22:17.644Z,60.7
2022-11-04T11:25:44.164Z,60.2
2022-11-04T11:27:27.506Z,60.1
2022-11-04T11:29:10.924Z,60
2022-11-04T11:30:54.373Z,60.1
2022-11-04T11:32:37.747Z,59.9
2022-11-04T11:34:21.101Z,59.9
2022-11-04T11:36:04.506Z,59.8
2022-11-04T11:37:47.886Z,59.7
2022-11-04T11:42:57.144Z,60.1
2022-11-04T11:44:40.622Z,60.1
2022-11-04T11:46:23.915Z,60.3
2022-11-04T11:48:07.307Z,60.1
2022-11-04T11:49:50.720Z,60.4
2022-11-04T11:51:34.110Z,60
2022-11-04T11:53:17.522Z,59.8
2022-11-04T11:55:00.907Z,59.8
2022-11-04T12:00:10.145Z,59.9
2022-11-04T12:01:53.542Z,60
2022-11-04T12:03:36.930Z,60.1
2022-11-04T12:05:20.329Z,60.2
2022-11-04T12:07:03.734Z,60.2
2022-11-04T12:08:47.167Z,59.9
2022-11-04T12:10:30.534Z,60.2
2022-11-04T12:12:13.999Z,60.4
2022-11-04T12:17:23.217Z,60
2022-11-04T12:19:06.562Z,60
2022-11-04T12:20:49.950Z,60
2022-11-04T12:22:33.357Z,59.9
2022-11-04T12:24:16.753Z,59.9
2022-11-04T12:26:00.135Z,60
2022-11-04T12:27:43.564Z,60.1
2022-11-04T12:29:26.936Z,60.3
2022-11-04T12:34:36.170Z,60.4
2022-11-04T12:36:19.611Z,60.2
2022-11-04T12:38:02.960Z,60.1
2022-11-04T12:39:46.369Z,60.1
2022-11-04T12:41:29.757Z,60.1
2022-11-04T12:43:13.170Z,60.1
2022-11-04T12:44:56.562Z,60.3
2022-11-04T12:46:39.976Z,60.3
2022-11-04T12:51:49.191Z,60.2
2022-11-04T12:53:32.596Z,60.2
2022-11-04T12:55:16.023Z,60.2
2022-11-04T12:56:59.378Z,60.3
2022-11-04T12:58:42.782Z,60.3
2022-11-04T13:00:26.234Z,60.6
2022-11-04T13:02:09.585Z,60.6
2022-11-04T13:03:52.970Z,60.7
2022-11-04T13:07:19.433Z,60.5
2022-11-04T13:09:02.832Z,60.6
2022-11-04T13:10:46.236Z,60.6
2022-11-04T13:12:29.710Z,60.5
2022-11-04T13:14:13.032Z,60.5
2022-11-04T13:15:56.428Z,60.5
2022-11-04T13:17:39.808Z,60.5
2022-11-04T13:19:23.229Z,60.5
2022-11-04T13:24:32.452Z,60.5
2022-11-04T13:26:15.852Z,60.5
2022-11-04T13:27:59.263Z,60.5
2022-11-04T13:29:42.680Z,60.5
2022-11-04T13:31:26.052Z,60.5
2022-11-04T13:33:09.445Z,60.5
2022-11-04T13:34:52.833Z,60.5
2022-11-04T13:36:36.241Z,60.5
2022-11-04T13:41:45.491Z,60.5
2022-11-04T13:43:28.911Z,60.5
2022-11-04T13:45:12.267Z,60.5
2022-11-04T13:46:55.716Z,60.5
2022-11-04T13:48:39.116Z,60.5
2022-11-04T13:50:22.503Z,60.5
2022-11-04T13:52:05.850Z,60.5
2022-11-04T13:53:49.261Z,60.5
2022-11-04T13:55:32.752Z,60.5
2022-11-04T13:57:16.378Z,60.5
2022-11-04T13:58:59.780Z,60.5
2022-11-04T14:00:43.157Z,60.5
2022-11-04T14:02:26.540Z,60.5
2022-11-04T14:04:09.940Z,60.5
2022-11-04T14:05:53.337Z,60.5
2022-11-04T14:07:36.740Z,60.5
2022-11-04T14:09:20.154Z,60.5
2022-11-04T14:11:03.555Z,60.5
2022-11-04T14:12:47.223Z,60.5
2022-11-04T14:14:30.625Z,60.4
2022-11-04T14:16:14.047Z,60.5
2022-11-04T14:17:57.422Z,60.4
2022-11-04T14:19:40.813Z,60.4
2022-11-04T14:21:24.223Z,60.4
2022-11-04T14:23:07.629Z,60.5
2022-11-04T14:24:51.012Z,60.4
2022-11-04T14:26:34.393Z,60.5
2022-11-04T14:30:00.908Z,60.5
2022-11-04T14:31:44.286Z,60.5
2022-11-04T14:33:27.679Z,60.4
2022-11-04T14:35:11.074Z,60.4
2022-11-04T14:36:54.459Z,60.4
2022-11-04T14:38:37.868Z,60.4
2022-11-04T14:40:21.246Z,60.4
2022-11-04T14:42:04.656Z,60.4
2022-11-04T14:43:48.059Z,60.4
2022-11-04T14:47:14.557Z,60.4
2022-11-04T14:48:57.938Z,60.4
2022-11-04T14:50:41.316Z,60.4
2022-11-04T14:52:24.718Z,60.4
2022-11-04T14:54:08.112Z,60.4
2022-11-04T14:55:51.498Z,60.4
2022-11-04T14:57:34.984Z,60.4
2022-11-04T14:59:18.317Z,60.5
2022-11-04T15:01:01.699Z,60.5
2022-11-04T15:06:10.930Z,60.5
2022-11-04T15:07:54.335Z,60.5
2022-11-04T15:09:37.734Z,60.5
2022-11-04T15:11:21.126Z,60.4
2022-11-04T15:13:04.520Z,60.4
2022-11-04T15:14:47.940Z,60.4
2022-11-04T15:16:31.312Z,60.5
2022-11-04T15:18:14.711Z,60.5
2022-11-04T15:19:58.125Z,60.4
2022-11-04T15:23:24.586Z,60.5
2022-11-04T15:25:08.041Z,60.5
2022-11-04T15:26:51.386Z,60.5
2022-11-04T15:28:34.783Z,60.5
2022-11-04T15:30:18.164Z,60.5
2022-11-04T15:32:01.565Z,60.4
2022-11-04T15:33:44.980Z,60.4
2022-11-04T15:35:28.364Z,60.4
2022-11-04T15:37:11.803Z,60.4
2022-11-04T15:38:55.500Z,60.4
2022-11-04T15:40:38.857Z,60.4
2022-11-04T15:42:22.316Z,60.4
2022-11-04T15:44:05.711Z,60.4
2022-11-04T15:45:49.114Z,60.4
2022-11-04T15:47:32.454Z,60.4
2022-11-04T15:49:15.835Z,60.3
2022-11-04T15:50:59.244Z,60.3
2022-11-04T15:52:42.631Z,60.2
2022-11-04T15:56:09.115Z,60.4
2022-11-04T15:57:52.517Z,60.4
2022-11-04T15:59:35.897Z,60.5
2022-11-04T16:01:19.310Z,60.4
2022-11-04T16:03:02.712Z,60.5
2022-11-04T16:04:46.093Z,60.5
2022-11-04T16:06:29.476Z,60.6
2022-11-04T16:08:12.880Z,60.6
2022-11-04T16:09:56.356Z,60.6
2022-11-04T16:11:40.021Z,60.6
2022-11-04T16:13:23.373Z,60.6
2022-11-04T16:15:06.873Z,60.5
2022-11-04T16:16:50.181Z,60.7
2022-11-04T16:18:33.597Z,60.7
2022-11-04T16:20:16.984Z,60.7
2022-11-04T16:22:00.420Z,60.8
2022-11-04T16:23:43.756Z,60.8
2022-11-04T16:28:53.012Z,60.6
2022-11-04T16:30:36.399Z,60.6
2022-11-04T16:32:19.783Z,60.6
2022-11-04T16:34:03.193Z,60.6
2022-11-04T16:35:46.579Z,60.6
2022-11-04T16:37:30.002Z,60.6
2022-11-04T16:39:13.364Z,60.6
2022-11-04T16:40:56.774Z,60.6
2022-11-04T16:44:23.248Z,60.5
2022-11-04T16:46:06.709Z,60.6
2022-11-04T16:47:50.054Z,60.6
2022-11-04T16:49:33.430Z,60.6
2022-11-04T16:51:16.826Z,60.6
2022-11-04T16:53:00.265Z,60.6
2022-11-04T16:54:43.621Z,60.6
2022-11-04T16:56:27.045Z,60.6
2022-11-04T17:01:36.248Z,61
2022-11-04T17:03:19.653Z,61
2022-11-04T17:05:03.078Z,61.1
2022-11-04T17:06:46.446Z,61.1
2022-11-04T17:08:29.845Z,61.3
2022-11-04T17:10:13.235Z,61.2
2022-11-04T17:11:56.634Z,61.2
2022-11-04T17:13:40.115Z,61.1
2022-11-04T17:18:49.268Z,61.2
2022-11-04T17:20:32.740Z,61.3
2022-11-04T17:22:16.072Z,61.3
2022-11-04T17:23:59.479Z,61.1
2022-11-04T17:25:42.859Z,61.1
2022-11-04T17:27:26.277Z,61
2022-11-04T17:29:09.637Z,61
2022-11-04T17:30:53.100Z,61
2022-11-04T17:34:19.516Z,60.9
2022-11-04T17:36:02.907Z,60.9
2022-11-04T17:37:46.318Z,60.9
2022-11-04T17:39:29.697Z,60.9
2022-11-04T17:41:13.105Z,60.9
2022-11-04T17:42:56.500Z,60.8
2022-11-04T17:44:39.919Z,60.8
2022-11-04T17:46:23.291Z,60.8
2022-11-04T17:49:49.823Z,60.8
2022-11-04T17:51:33.243Z,60.7
2022-11-04T17:53:16.585Z,60.7
2022-11-04T17:54:59.952Z,60.7
2022-11-04T17:56:43.397Z,60.7
2022-11-04T17:58:26.797Z,60.7
2022-11-04T18:00:10.143Z,60.7
2022-11-04T18:01:53.557Z,60.7
2022-11-04T18:05:20.009Z,60.7
2022-11-04T18:07:03.447Z,60.7
2022-11-04T18:08:46.792Z,60.6
2022-11-04T18:10:30.191Z,60.5
2022-11-04T18:12:13.587Z,60.4
2022-11-04T18:13:56.986Z,60.4
2022-11-04T18:15:40.526Z,60.4
2022-11-04T18:17:23.861Z,60.3
2022-11-04T18:22:33.050Z,60.2
2022-11-04T18:24:16.416Z,60.2
2022-11-04T18:25:59.853Z,60.1
2022-11-04T18:27:43.251Z,60.2
2022-11-04T18:29:26.636Z,60.1
2022-11-04T18:31:09.992Z,60.1
2022-11-04T18:32:53.416Z,60.1
2022-11-04T18:34:36.798Z,60.1
2022-11-04T18:38:03.337Z,60.1
2022-11-04T18:39:46.691Z,60.1
2022-11-04T18:41:30.067Z,60
2022-11-04T18:43:13.444Z,60
2022-11-04T18:44:56.910Z,60
2022-11-04T18:46:40.268Z,60
2022-11-04T18:48:23.647Z,60
2022-11-04T18:50:07.039Z,59.9
2022-11-04T18:55:16.274Z,59.9
2022-11-04T18:56:59.713Z,59.9
2022-11-04T18:58:43.075Z,59.8
2022-11-04T19:00:26.461Z,59.8
2022-11-04T19:02:09.900Z,59.8
2022-11-04T19:03:53.262Z,59.9
2022-11-04T19:05:36.667Z,59.8
2022-11-04T19:07:20.059Z,59.8
2022-11-04T19:12:29.316Z,59.7
2022-11-04T19:14:12.750Z,59.8
2022-11-04T19:15:56.140Z,59.9
2022-11-04T19:17:39.508Z,59.9
2022-11-04T19:19:22.872Z,60
2022-11-04T19:21:06.286Z,59.9
2022-11-04T19:22:49.705Z,59.8
2022-11-04T19:24:33.095Z,59.7
2022-11-04T19:29:42.314Z,59.6
2022-11-04T19:31:25.705Z,59.6
2022-11-04T19:33:09.157Z,59.5
2022-11-04T19:34:52.494Z,59.5
2022-11-04T19:36:35.918Z,59.5
2022-11-04T19:38:19.301Z,59.5
2022-11-04T19:40:02.692Z,59.5
2022-11-04T19:41:46.079Z,59.5
2022-11-04T19:43:29.483Z,59.5
2022-11-04T19:45:13.186Z,59.5
2022-11-04T19:46:56.603Z,59.5
2022-11-04T19:48:39.987Z,59.5
2022-11-04T19:50:23.405Z,59.5
2022-11-04T19:52:06.779Z,59.5
2022-11-04T19:53:50.190Z,59.5
2022-11-04T19:55:33.587Z,59.5
2022-11-04T19:57:16.968Z,59.5
2022-11-04T20:02:26.292Z,59.5
2022-11-04T20:04:09.657Z,59.5
2022-11-04T20:05:53.021Z,59.5
2022-11-04T20:07:36.416Z,59.5
2022-11-04T20:09:19.910Z,59.5
2022-11-04T20:11:03.178Z,59.5
2022-11-04T20:12:46.569Z,59.5
2022-11-04T20:14:30.005Z,59.5
2022-11-04T20:17:56.438Z,59.5
2022-11-04T20:19:39.923Z,59.5
2022-11-04T20:21:23.286Z,59.5
2022-11-04T20:23:06.654Z,59.5
2022-11-04T20:24:50.072Z,59.5
2022-11-04T20:26:33.435Z,59.5
2022-11-04T20:28:16.828Z,59.5
2022-11-04T20:30:00.318Z,59.4
2022-11-04T20:33:26.708Z,59.5
2022-11-04T20:35:10.082Z,59.5
2022-11-04T20:36:53.484Z,59.5
2022-11-04T20:38:36.920Z,59.5
2022-11-04T20:40:20.328Z,59.4
2022-11-04T20:42:03.665Z,59.4
2022-11-04T20:43:47.069Z,59.5
2022-11-04T20:45:30.458Z,59.5
2022-11-04T20:50:39.705Z,59.5
2022-11-04T20:52:23.116Z,59.5
2022-11-04T20:54:06.540Z,59.4
2022-11-04T20:55:49.883Z,59.5
2022-11-04T20:57:33.289Z,59.4
2022-11-04T20:59:16.716Z,59.4
2022-11-04T21:01:00.130Z,59.4
2022-11-04T21:02:43.494Z,59.4
2022-11-04T21:06:09.948Z,59.5
2022-11-04T21:07:53.352Z,59.4
2022-11-04T21:09:36.781Z,59.5
2022-11-04T21:11:20.144Z,59.4
2022-11-04T21:13:03.529Z,59.5
2022-11-04T21:14:46.939Z,59.4
2022-11-04T21:16:30.355Z,59.4
2022-11-04T21:18:13.722Z,59.4
2022-11-04T21:21:40.185Z,59.4
2022-11-04T21:23:23.598Z,59.4
2022-11-04T21:25:07.001Z,59.4
2022-11-04T21:26:50.429Z,59.4
2022-11-04T21:28:33.796Z,59.4
2022-11-04T21:30:17.205Z,59.4
2022-11-04T21:32:00.602Z,59.4
2022-11-04T21:33:43.978Z,59.4
2022-11-04T21:37:10.440Z,59.4
2022-11-04T21:38:53.883Z,59.4
2022-11-04T21:40:37.222Z,59.6
2022-11-04T21:42:20.617Z,59.6
2022-11-04T21:44:04.029Z,59.5
2022-11-04T21:45:47.499Z,59.5
2022-11-04T21:47:30.811Z,59.5
2022-11-04T21:49:14.221Z,59.5
2022-11-04T21:50:57.919Z,59.5
2022-11-04T21:52:41.326Z,59.5
2022-11-04T21:54:24.726Z,59.5
2022-11-04T21:56:08.113Z,59.5
2022-11-04T21:57:51.503Z,59.5
2022-11-04T21:59:34.918Z,59.5
2022-11-04T22:01:18.292Z,59.5
2022-11-04T22:03:01.741Z,59.5
2022-11-04T22:06:28.166Z,59.5
2022-11-04T22:08:11.553Z,59.6
2022-11-04T22:09:54.972Z,59.6
2022-11-04T22:11:38.348Z,59.6
2022-11-04T22:13:21.752Z,59.6
2022-11-04T22:15:05.188Z,59.6
2022-11-04T22:16:48.586Z,59.6
2022-11-04T22:18:31.954Z,59.6
2022-11-04T22:21:58.429Z,59.7
2022-11-04T22:23:41.810Z,59.6
2022-11-04T22:25:25.202Z,59.7
2022-11-04T22:27:08.587Z,59.7
2022-11-04T22:28:51.998Z,59.7
2022-11-04T22:30:35.388Z,59.7
2022-11-04T22:32:18.798Z,59.7
2022-11-04T22:34:02.192Z,59.7
2022-11-04T22:35:45.895Z,59.8
2022-11-04T22:37:29.359Z,59.8
2022-11-04T22:39:12.736Z,59.8
2022-11-04T22:40:56.070Z,59.8
2022-11-04T22:42:39.470Z,59.7
2022-11-04T22:44:22.857Z,59.8
2022-11-04T22:46:06.270Z,59.8
2022-11-04T22:47:49.662Z,59.8
2022-11-04T22:49:33.366Z,59.8
2022-11-04T22:51:16.753Z,59.8
2022-11-04T22:53:00.163Z,59.8
2022-11-04T22:54:43.545Z,59.8
2022-11-04T22:56:26.994Z,59.8
2022-11-04T22:58:10.357Z,59.8
2022-11-04T22:59:53.735Z,59.8
2022-11-04T23:01:37.140Z,59.9
2022-11-04T23:05:03.649Z,59.9
2022-11-04T23:06:47.001Z,59.8
2022-11-04T23:08:30.409Z,59.8
2022-11-04T23:10:13.806Z,59.8
2022-11-04T23:11:57.201Z,59.8
2022-11-04T23:13:40.588Z,59.8
2022-11-04T23:15:23.999Z,59.8
2022-11-04T23:17:07.393Z,59.8
2022-11-04T23:20:33.854Z,59.8
2022-11-04T23:22:17.249Z,59.8
2022-11-04T23:24:00.719Z,59.8
2022-11-04T23:25:44.046Z,59.8
2022-11-04T23:27:27.448Z,59.8
2022-11-04T23:29:10.848Z,59.8
2022-11-04T23:30:54.267Z,59.8
2022-11-04T23:32:37.636Z,59.8
2022-11-04T23:36:04.147Z,59.8
2022-11-04T23:37:47.506Z,59.8
2022-11-04T23:39:30.904Z,59.8
2022-11-04T23:41:14.323Z,59.8
2022-11-04T23:42:57.700Z,59.8
2022-11-04T23:44:41.093Z,59.8
2022-11-04T23:46:24.471Z,59.8
2022-11-04T23:48:07.935Z,59.8
2022-11-04T23:51:34.350Z,59.8
2022-11-04T23:53:17.736Z,59.8
2022-11-04T23:55:01.172Z,59.8
2022-11-04T23:56:44.550Z,59.7
2022-11-04T23:58:27.950Z,59.8
